Time;durP1;ratioP1;P1;durP2;ratioP2;P2;SDS_P1;SDS_P2;PMS_P1;PMS_P2;Temp;Humidity;BMP_temperature;BMP_pressure;BME280_temperature;BME280_humidity;BME280_pressure;Samples;Min_cycle;Max_cycle;Signal;HPM_P1;HPM_P2
2022/06/19 00:00:26;;;;;;;17.63;8.85;;;24.40;60.50;;;;;;5030489;28;20029;-74
2022/06/19 00:02:52;;;;;;;16.83;8.55;;;24.40;60.50;;;;;;5030110;28;20033;-73
2022/06/19 00:05:18;;;;;;;30.17;9.93;;;24.40;60.50;;;;;;5030962;28;20029;-73
2022/06/19 00:07:44;;;;;;;28.48;9.48;;;24.40;64.80;;;;;;5028447;28;20072;-73
2022/06/19 00:10:11;;;;;;;29.85;9.40;;;24.40;66.00;;;;;;5029387;28;20530;-73
2022/06/19 00:12:37;;;;;;;24.02;7.72;;;24.40;64.50;;;;;;5028702;28;20483;-73
2022/06/19 00:15:04;;;;;;;16.55;6.55;;;24.40;63.90;;;;;;5029407;28;20381;-75
2022/06/19 00:17:29;;;;;;;13.10;5.47;;;24.40;63.80;;;;;;5026254;28;20041;-74
2022/06/19 00:19:55;;;;;;;9.23;5.40;;;24.40;62.20;;;;;;5027978;28;20036;-75
2022/06/19 00:22:21;;;;;;;11.88;5.80;;;24.40;62.80;;;;;;5029847;28;20116;-75
2022/06/19 00:24:47;;;;;;;13.48;7.53;;;24.30;62.40;;;;;;5030046;28;20041;-75
2022/06/19 00:27:13;;;;;;;35.55;28.08;;;24.30;62.40;;;;;;5028878;28;20022;-75
2022/06/19 00:29:39;;;;;;;44.15;28.13;;;24.30;62.40;;;;;;5031707;28;20029;-73
2022/06/19 00:32:07;;;;;;;29.13;19.67;;;24.30;62.40;;;;;;5034570;28;20053;-72
2022/06/19 00:34:37;;;;;;;30.40;20.67;;;24.40;62.80;;;;;;5034688;28;20026;-72
2022/06/19 00:37:03;;;;;;;24.63;16.60;;;24.30;62.30;;;;;;5035590;28;20084;-71
2022/06/19 00:39:31;;;;;;;22.73;13.27;;;24.30;62.00;;;;;;5032952;28;20660;-72
2022/06/19 00:41:57;;;;;;;18.92;10.48;;;24.30;62.20;;;;;;5016708;28;20029;-72
2022/06/19 00:44:23;;;;;;;14.88;7.38;;;24.30;62.20;;;;;;5034725;28;20552;-72
2022/06/19 00:47:00;;;;;;;11.85;7.68;;;24.30;62.40;;;;;;5034573;28;20029;-72
2022/06/19 00:49:31;;;;;;;17.10;8.02;;;24.30;62.50;;;;;;5032866;28;20489;-71
2022/06/19 00:52:06;;;;;;;15.43;8.25;;;24.20;62.70;;;;;;5034343;28;20036;-72
2022/06/19 00:54:46;;;;;;;11.18;6.97;;;24.20;62.50;;;;;;5034606;28;20475;-72
2022/06/19 00:57:12;;;;;;;;;;;24.20;62.60;;;;;;5033519;28;20021;-72
2022/06/19 00:59:39;;;;;;;12.43;6.30;;;24.20;62.50;;;;;;5033056;28;19969;-72
2022/06/19 01:02:07;;;;;;;9.98;5.65;;;24.20;62.40;;;;;;5034189;28;20025;-71
2022/06/19 01:04:44;;;;;;;12.30;6.05;;;24.20;62.40;;;;;;5034407;28;20034;-71
2022/06/19 01:07:10;;;;;;;10.93;5.90;;;24.20;62.40;;;;;;5034174;28;20387;-72
2022/06/19 01:09:36;;;;;;;9.48;5.70;;;24.10;62.40;;;;;;5030131;28;20685;-72
2022/06/19 01:12:04;;;;;;;14.85;6.10;;;24.10;62.30;;;;;;5033972;28;20100;-71
2022/06/19 01:14:31;;;;;;;12.63;5.30;;;24.20;62.20;;;;;;5031617;28;20034;-72
2022/06/19 01:17:01;;;;;;;17.02;5.50;;;24.10;62.30;;;;;;5030414;28;20084;-72
2022/06/19 01:19:30;;;;;;;11.20;5.78;;;24.10;62.50;;;;;;5032161;28;20052;-72
2022/06/19 01:22:06;;;;;;;12.15;5.15;;;24.10;62.50;;;;;;5032243;28;20112;-72
2022/06/19 01:24:49;;;;;;;12.45;4.78;;;24.20;62.30;;;;;;5032656;28;20037;-71
2022/06/19 01:28:45;;;;;;;13.90;5.60;;;24.10;62.30;;;;;;5032221;28;20021;-72
2022/06/19 01:30:04;;;;;;;11.40;5.93;;;24.10;62.90;;;;;;5031713;28;20571;-71
2022/06/19 01:32:33;;;;;;;11.23;4.95;;;24.10;62.40;;;;;;5033774;28;20494;-72
2022/06/19 01:35:00;;;;;;;9.88;4.88;;;24.10;62.30;;;;;;5031680;28;20036;-72
2022/06/19 01:37:27;;;;;;;12.73;4.65;;;24.00;62.10;;;;;;5026684;28;20501;-72
2022/06/19 01:40:01;;;;;;;8.68;5.15;;;24.00;62.10;;;;;;5031393;28;20083;-72
2022/06/19 01:42:30;;;;;;;11.90;5.22;;;24.00;62.20;;;;;;5031575;28;20021;-71
2022/06/19 01:44:57;;;;;;;9.45;4.88;;;24.10;62.30;;;;;;5032336;28;20022;-71
2022/06/19 01:47:24;;;;;;;10.18;5.00;;;24.10;62.30;;;;;;5009245;28;20021;-71
2022/06/19 01:49:53;;;;;;;9.65;4.72;;;24.00;62.10;;;;;;5029854;28;20029;-72
2022/06/19 01:52:20;;;;;;;9.35;5.30;;;24.00;61.90;;;;;;5031032;28;20030;-72
2022/06/19 01:54:58;;;;;;;11.20;4.93;;;24.00;62.00;;;;;;5032045;28;20109;-71
2022/06/19 01:57:25;;;;;;;9.18;4.65;;;24.00;62.30;;;;;;5027544;28;20407;-71
2022/06/19 01:59:52;;;;;;;10.02;5.00;;;24.00;62.10;;;;;;5028653;28;20521;-71
2022/06/19 02:02:18;;;;;;;8.45;5.00;;;24.00;62.10;;;;;;5032233;28;20138;-71
2022/06/19 02:04:45;;;;;;;9.98;5.07;;;24.00;62.10;;;;;;5014650;28;20037;-72
2022/06/19 02:07:21;;;;;;;9.93;5.13;;;24.00;61.90;;;;;;5030291;28;20021;-71
2022/06/19 02:09:48;;;;;;;13.40;5.22;;;24.00;62.10;;;;;;5030569;28;20029;-72
2022/06/19 02:12:14;;;;;;;12.25;5.40;;;24.00;62.30;;;;;;5031748;28;20022;-72
2022/06/19 02:14:40;;;;;;;13.20;4.70;;;24.00;62.40;;;;;;5031568;28;20053;-72
2022/06/19 02:17:25;;;;;;;8.10;5.03;;;24.00;62.00;;;;;;5031822;28;20558;-72
2022/06/19 02:19:52;;;;;;;7.68;4.38;;;24.00;62.20;;;;;;5029751;28;20033;-71
2022/06/19 02:22:18;;;;;;;9.50;4.78;;;24.00;62.20;;;;;;5030638;28;20035;-72
2022/06/19 02:24:45;;;;;;;9.65;5.20;;;24.00;62.20;;;;;;5032630;28;20029;-72
2022/06/19 02:27:11;;;;;;;10.93;5.13;;;24.00;62.40;;;;;;5030328;28;20029;-72
2022/06/19 02:29:40;;;;;;;7.53;4.75;;;24.00;61.90;;;;;;5031936;28;20022;-72
2022/06/19 02:32:18;;;;;;;8.05;4.60;;;23.90;62.10;;;;;;5031856;28;20367;-71
2022/06/19 02:34:44;;;;;;;10.65;4.88;;;23.90;62.00;;;;;;5030884;28;20378;-71
2022/06/19 02:37:22;;;;;;;8.40;4.63;;;24.00;62.30;;;;;;5029076;28;20018;-71
2022/06/19 02:39:57;;;;;;;7.68;4.22;;;23.90;61.80;;;;;;5031654;28;20109;-72
2022/06/19 02:42:23;;;;;;;8.23;4.97;;;24.00;61.60;;;;;;5025357;28;20026;-72
2022/06/19 02:44:51;;;;;;;9.98;4.93;;;24.00;62.00;;;;;;5030715;28;20035;-71
2022/06/19 02:47:17;;;;;;;6.72;4.53;;;24.00;62.20;;;;;;5038601;28;20021;-72
2022/06/19 02:49:43;;;;;;;9.18;4.43;;;23.90;62.10;;;;;;5031173;28;20036;-71
2022/06/19 02:52:11;;;;;;;8.63;4.93;;;24.00;62.10;;;;;;5030326;28;20026;-72
2022/06/19 02:54:38;;;;;;;10.40;4.82;;;24.00;62.00;;;;;;5029741;28;20029;-72
2022/06/19 02:57:06;;;;;;;13.38;5.15;;;23.90;61.80;;;;;;5031208;28;20068;-71
2022/06/19 02:59:32;;;;;;;10.80;4.22;;;24.00;61.90;;;;;;5030672;28;20479;-72
2022/06/19 03:01:59;;;;;;;9.55;4.95;;;24.00;62.30;;;;;;5013680;28;20486;-72
2022/06/19 03:04:46;;;;;;;8.55;4.20;;;24.00;61.90;;;;;;5031770;28;20048;-72
2022/06/19 03:07:12;;;;;;;9.20;4.43;;;24.00;62.00;;;;;;5028613;28;20041;-71
2022/06/19 03:09:38;;;;;;;9.25;4.60;;;24.00;62.00;;;;;;5030670;28;20100;-71
2022/06/19 03:12:04;;;;;;;9.18;4.32;;;24.00;62.00;;;;;;5031013;28;20482;-72
2022/06/19 03:14:30;;;;;;;10.30;4.13;;;23.90;62.00;;;;;;5030902;28;20041;-71
2022/06/19 03:16:56;;;;;;;9.07;4.65;;;23.90;61.90;;;;;;5028635;28;20075;-72
2022/06/19 03:19:22;;;;;;;7.38;4.40;;;23.90;62.10;;;;;;5030899;28;20470;-72
2022/06/19 03:21:49;;;;;;;10.05;4.70;;;23.90;61.90;;;;;;5030584;28;20029;-71
2022/06/19 03:24:15;;;;;;;12.32;4.75;;;24.00;62.10;;;;;;5029677;28;20037;-75
2022/06/19 03:26:41;;;;;;;9.25;4.57;;;23.90;62.10;;;;;;5027978;28;20401;-75
2022/06/19 03:29:07;;;;;;;13.43;4.68;;;24.00;62.00;;;;;;5028593;28;20113;-74
2022/06/19 03:31:32;;;;;;;11.75;5.20;;;24.00;62.10;;;;;;5031534;28;20022;-74
2022/06/19 03:33:58;;;;;;;9.68;4.80;;;24.00;62.10;;;;;;5029205;28;20363;-75
2022/06/19 03:36:25;;;;;;;12.77;5.13;;;24.00;62.00;;;;;;5013288;28;20071;-74
2022/06/19 03:38:51;;;;;;;10.15;5.18;;;24.00;62.00;;;;;;5029803;28;20029;-74
2022/06/19 03:41:17;;;;;;;14.02;4.63;;;24.00;61.90;;;;;;5023402;28;20033;-73
2022/06/19 03:43:43;;;;;;;10.30;4.72;;;24.00;61.90;;;;;;5024996;28;20034;-73
2022/06/19 03:46:14;;;;;;;11.40;4.68;;;24.00;61.80;;;;;;5003518;28;20034;-74
2022/06/19 03:48:42;;;;;;;8.00;4.78;;;24.00;62.00;;;;;;5028997;28;20470;-73
2022/06/19 03:51:08;;;;;;;11.82;5.07;;;24.00;61.90;;;;;;5030144;28;20060;-74
2022/06/19 03:53:35;;;;;;;11.32;5.07;;;24.00;62.00;;;;;;5025016;28;20030;-74
2022/06/19 03:56:01;;;;;;;15.85;6.22;;;24.00;62.00;;;;;;5027480;28;20044;-75
2022/06/19 04:01:20;;;;;;;11.40;5.03;;;24.00;62.00;;;;;;5029846;28;20501;-75
2022/06/19 04:03:47;;;;;;;12.70;5.72;;;24.10;62.00;;;;;;5030151;28;20030;-75
2022/06/19 04:06:15;;;;;;;15.45;6.65;;;24.10;62.20;;;;;;5034152;28;20021;-75
2022/06/19 04:08:41;;;;;;;16.67;6.50;;;24.10;62.10;;;;;;5033661;28;20029;-75
2022/06/19 04:11:08;;;;;;;11.15;6.95;;;24.10;62.20;;;;;;5035195;28;20040;-76
2022/06/19 04:13:34;;;;;;;14.18;6.00;;;24.10;62.20;;;;;;5033141;28;20029;-77
2022/06/19 04:16:02;;;;;;;16.02;6.72;;;24.10;62.30;;;;;;5032941;28;20069;-77
2022/06/19 04:18:31;;;;;;;14.30;6.45;;;24.10;62.30;;;;;;5024117;28;20037;-77
2022/06/19 04:20:58;;;;;;;15.35;6.78;;;24.10;62.20;;;;;;5035297;28;20026;-76
2022/06/19 04:23:25;;;;;;;15.85;6.65;;;24.10;62.70;;;;;;5034144;28;20468;-77
2022/06/19 04:25:52;;;;;;;18.85;6.97;;;24.10;62.20;;;;;;5033769;28;20057;-78
2022/06/19 04:28:22;;;;;;;10.75;5.82;;;24.00;62.10;;;;;;5032141;28;20017;-79
2022/06/19 04:30:52;;;;;;;10.48;5.85;;;24.00;62.00;;;;;;5034230;28;20018;-78
2022/06/19 04:33:20;;;;;;;14.95;6.63;;;24.10;62.10;;;;;;5026139;28;20017;-77
2022/06/19 04:35:47;;;;;;;12.35;5.60;;;24.00;62.10;;;;;;5032820;28;20029;-77
2022/06/19 04:38:14;;;;;;;16.27;6.43;;;24.00;62.00;;;;;;5033889;28;20104;-76
2022/06/19 04:40:40;;;;;;;13.57;5.60;;;24.10;62.20;;;;;;5033938;28;20513;-77
2022/06/19 04:43:06;;;;;;;14.10;6.43;;;24.10;62.10;;;;;;5033445;28;20109;-76
2022/06/19 04:45:33;;;;;;;11.90;6.20;;;24.10;62.10;;;;;;5032327;28;20079;-76
2022/06/19 04:47:59;;;;;;;16.50;6.40;;;24.10;62.00;;;;;;5031869;28;20036;-76
2022/06/19 04:50:25;;;;;;;15.50;6.40;;;24.10;62.00;;;;;;5032234;28;20026;-74
2022/06/19 04:52:51;;;;;;;13.55;5.75;;;24.20;62.10;;;;;;5034567;28;20100;-75
2022/06/19 04:55:18;;;;;;;13.38;6.50;;;24.20;61.90;;;;;;5031825;28;20413;-75
2022/06/19 04:57:44;;;;;;;12.55;6.22;;;24.20;62.00;;;;;;5032583;28;20474;-75
2022/06/19 05:00:14;;;;;;;16.40;7.03;;;24.20;62.00;;;;;;5033357;28;20095;-75
2022/06/19 05:02:40;;;;;;;;;;;24.20;62.00;;;;;;5033136;28;20057;-75
2022/06/19 05:05:07;;;;;;;14.05;6.90;;;24.20;62.10;;;;;;5033143;28;20412;-75
2022/06/19 05:07:34;;;;;;;16.70;7.53;;;24.20;61.90;;;;;;5032133;28;20105;-75
2022/06/19 05:10:00;;;;;;;14.98;7.75;;;24.20;62.20;;;;;;5030370;28;20075;-75
2022/06/19 05:12:27;;;;;;;15.85;8.05;;;24.20;62.10;;;;;;5034076;28;20029;-75
2022/06/19 05:14:53;;;;;;;17.02;7.20;;;24.20;62.20;;;;;;5031939;28;20021;-75
2022/06/19 05:17:19;;;;;;;17.85;7.95;;;24.20;62.20;;;;;;5030538;28;20096;-75
2022/06/19 05:19:45;;;;;;;15.18;7.70;;;24.20;62.10;;;;;;5033336;28;20056;-75
2022/06/19 05:22:11;;;;;;;15.10;7.57;;;24.20;62.00;;;;;;5031974;28;20041;-74
2022/06/19 05:24:37;;;;;;;16.95;8.73;;;24.20;62.10;;;;;;5031710;28;20029;-75
2022/06/19 05:27:10;;;;;;;14.93;8.07;;;24.20;62.20;;;;;;5031838;28;20548;-74
2022/06/19 05:29:37;;;;;;;15.27;7.30;;;24.20;62.10;;;;;;5026523;28;20526;-75
2022/06/19 05:32:04;;;;;;;15.75;7.40;;;24.30;62.30;;;;;;5032691;28;20025;-75
2022/06/19 05:34:31;;;;;;;14.48;7.38;;;24.30;61.90;;;;;;5031433;28;20032;-75
2022/06/19 05:36:57;;;;;;;14.68;7.80;;;24.30;61.90;;;;;;5032633;28;20120;-74
2022/06/19 05:39:23;;;;;;;14.80;8.07;;;24.30;61.70;;;;;;5032979;28;20095;-75
2022/06/19 05:41:49;;;;;;;19.73;8.43;;;24.30;61.70;;;;;;5014851;28;20485;-75
2022/06/19 05:44:15;;;;;;;20.38;8.30;;;24.30;61.50;;;;;;5033113;28;20025;-75
2022/06/19 05:46:44;;;;;;;18.80;7.93;;;24.30;61.50;;;;;;5032451;28;20030;-75
2022/06/19 05:49:10;;;;;;;15.48;8.20;;;24.30;61.50;;;;;;5031559;28;20018;-75
2022/06/19 05:51:36;;;;;;;18.52;8.30;;;24.40;61.30;;;;;;5032604;28;20030;-75
2022/06/19 05:54:02;;;;;;;17.23;8.27;;;24.40;61.20;;;;;;5030380;28;20055;-75
2022/06/19 05:56:29;;;;;;;17.42;7.57;;;24.40;61.20;;;;;;5033211;28;20147;-76
2022/06/19 05:58:55;;;;;;;18.98;7.78;;;24.40;61.00;;;;;;5029995;28;20109;-75
2022/06/19 06:01:23;;;;;;;17.10;7.47;;;24.40;60.80;;;;;;5032270;28;20025;-75
2022/06/19 06:03:49;;;;;;;17.25;7.38;;;24.40;60.60;;;;;;5032046;28;20398;-75
2022/06/19 06:06:17;;;;;;;17.73;8.23;;;24.50;60.40;;;;;;5032152;28;20025;-75
2022/06/19 06:08:44;;;;;;;18.98;8.25;;;24.50;60.30;;;;;;5030501;28;20064;-75
2022/06/19 06:11:10;;;;;;;21.77;9.38;;;24.50;60.20;;;;;;5031766;28;20025;-75
2022/06/19 06:13:36;;;;;;;17.77;8.23;;;24.50;60.20;;;;;;5030227;28;20056;-74
2022/06/19 06:16:02;;;;;;;14.88;7.80;;;24.50;60.10;;;;;;5030999;28;20025;-75
2022/06/19 06:18:28;;;;;;;16.13;7.97;;;24.50;60.10;;;;;;5031260;28;20033;-75
2022/06/19 06:21:03;;;;;;;19.48;8.38;;;24.50;59.90;;;;;;5028784;28;20025;-75
2022/06/19 06:23:29;;;;;;;16.33;7.50;;;24.50;60.10;;;;;;5030493;28;20037;-75
2022/06/19 06:26:10;;;;;;;16.63;7.95;;;24.50;60.00;;;;;;5031657;28;20134;-75
2022/06/19 06:28:38;;;;;;;16.65;7.88;;;24.60;60.00;;;;;;5026831;28;20033;-74
2022/06/19 06:31:04;;;;;;;19.55;7.45;;;24.60;59.80;;;;;;5014587;28;20033;-75
2022/06/19 06:33:30;;;;;;;19.65;8.88;;;24.60;59.70;;;;;;5030600;28;20277;-75
2022/06/19 06:35:57;;;;;;;21.65;9.15;;;24.60;59.30;;;;;;5031689;28;20025;-75
2022/06/19 06:38:24;;;;;;;21.38;8.55;;;24.70;59.00;;;;;;5031158;28;20463;-75
2022/06/19 06:40:51;;;;;;;21.08;7.53;;;24.70;58.80;;;;;;5031789;28;20025;-75
2022/06/19 06:43:17;;;;;;;17.10;7.20;;;24.70;58.70;;;;;;5030256;28;20096;-74
2022/06/19 06:45:43;;;;;;;26.92;8.88;;;24.70;58.70;;;;;;5031391;28;20029;-75
2022/06/19 06:48:09;;;;;;;18.92;8.25;;;24.70;58.80;;;;;;5010610;28;20034;-75
2022/06/19 06:50:37;;;;;;;17.95;8.25;;;24.70;58.80;;;;;;5030216;28;20021;-76
2022/06/19 06:53:03;;;;;;;19.35;8.35;;;24.80;58.70;;;;;;5031453;28;20026;-76
2022/06/19 06:55:29;;;;;;;16.90;7.80;;;24.80;58.80;;;;;;5031411;28;20430;-75
2022/06/19 06:57:54;;;;;;;21.58;7.78;;;24.80;58.60;;;;;;5031518;28;20029;-75
2022/06/19 07:00:22;;;;;;;19.70;7.53;;;24.80;58.40;;;;;;5030594;28;20025;-75
2022/06/19 07:02:49;;;;;;;16.83;8.20;;;24.80;58.40;;;;;;5030264;28;20041;-75
2022/06/19 07:05:15;;;;;;;20.90;8.43;;;24.80;58.30;;;;;;5031126;28;20048;-75
2022/06/19 07:07:41;;;;;;;20.88;7.13;;;24.80;58.60;;;;;;5030038;28;20478;-75
2022/06/19 07:10:07;;;;;;;14.63;7.38;;;24.80;58.70;;;;;;5030274;28;20036;-76
2022/06/19 07:12:33;;;;;;;16.60;7.07;;;24.80;58.70;;;;;;5028923;28;20031;-75
2022/06/19 07:14:59;;;;;;;20.83;7.43;;;24.80;58.60;;;;;;5029681;28;20029;-75
2022/06/19 07:17:25;;;;;;;22.20;6.95;;;24.90;58.60;;;;;;5029842;28;20079;-75
2022/06/19 07:19:51;;;;;;;24.50;7.28;;;24.90;58.20;;;;;;5030675;28;20022;-75
2022/06/19 07:22:18;;;;;;;15.75;6.20;;;24.90;58.50;;;;;;5030726;28;20445;-75
2022/06/19 07:24:44;;;;;;;18.35;6.30;;;24.90;58.40;;;;;;5030795;28;20040;-75
2022/06/19 07:27:10;;;;;;;18.05;6.68;;;25.00;57.90;;;;;;5031541;28;20072;-75
2022/06/19 07:29:41;;;;;;;13.02;6.32;;;25.00;57.60;;;;;;5031501;28;20644;-75
2022/06/19 07:32:07;;;;;;;22.00;6.55;;;25.00;57.80;;;;;;5032175;28;20057;-75
2022/06/19 07:34:33;;;;;;;17.30;6.68;;;24.90;57.80;;;;;;5030094;28;20030;-76
2022/06/19 07:36:59;;;;;;;19.40;6.28;;;24.90;58.00;;;;;;5030895;28;20029;-77
2022/06/19 07:39:26;;;;;;;16.30;7.07;;;24.80;58.50;;;;;;5028989;28;20037;-77
2022/06/19 07:41:52;;;;;;;15.02;6.70;;;24.80;58.80;;;;;;5031724;28;20026;-77
2022/06/19 07:44:18;;;;;;;18.83;7.40;;;24.80;59.30;;;;;;5030736;28;20051;-77
2022/06/19 07:52:13;;;;;;;16.63;6.82;;;24.70;59.80;;;;;;5031813;28;20053;-77
2022/06/19 07:54:39;;;;;;;15.25;7.28;;;24.70;59.70;;;;;;5029501;28;20022;-77
2022/06/19 07:57:06;;;;;;;17.60;7.50;;;24.70;60.00;;;;;;5031633;28;20108;-77
2022/06/19 07:59:31;;;;;;;20.40;7.25;;;24.60;60.00;;;;;;5029359;28;20036;-77
2022/06/19 08:01:57;;;;;;;20.92;6.85;;;24.70;60.10;;;;;;5030542;28;20029;-77
2022/06/19 08:04:23;;;;;;;16.23;6.85;;;24.60;60.10;;;;;;5030257;28;20041;-78
2022/06/19 08:06:50;;;;;;;16.70;7.10;;;24.60;60.20;;;;;;5030141;28;20037;-77
2022/06/19 08:09:16;;;;;;;18.65;6.45;;;24.70;60.30;;;;;;5029563;28;20095;-77
2022/06/19 08:11:41;;;;;;;17.42;7.38;;;24.70;60.30;;;;;;5031697;28;20420;-77
2022/06/19 08:14:07;;;;;;;17.42;7.15;;;24.70;60.40;;;;;;5030479;28;20045;-77
2022/06/19 08:16:34;;;;;;;18.83;7.20;;;24.70;60.40;;;;;;5029484;28;20136;-77
2022/06/19 08:19:00;;;;;;;14.07;7.43;;;24.70;60.40;;;;;;5029457;28;20025;-77
2022/06/19 08:21:26;;;;;;;18.52;7.28;;;24.70;60.50;;;;;;5030143;28;20091;-77
2022/06/19 08:23:52;;;;;;;11.18;6.53;;;24.70;60.60;;;;;;5029365;28;20146;-77
2022/06/19 08:26:18;;;;;;;14.60;6.60;;;24.60;60.60;;;;;;5031266;28;20478;-77
2022/06/19 08:29:17;;;;;;;17.40;6.43;;;24.60;60.60;;;;;;5029449;28;20028;-76
2022/06/19 08:31:36;;;;;;;16.95;7.10;;;24.60;60.70;;;;;;5023279;28;20037;-76
2022/06/19 08:34:02;;;;;;;17.75;7.10;;;24.70;61.00;;;;;;5028902;28;20028;-77
2022/06/19 08:36:31;;;;;;;18.92;7.90;;;24.60;60.90;;;;;;5028477;28;20036;-77
2022/06/19 08:39:01;;;;;;;16.05;7.20;;;24.60;60.90;;;;;;5027959;28;20025;-76
2022/06/19 08:41:48;;;;;;;19.80;7.72;;;24.60;61.00;;;;;;5027325;28;20157;-75
2022/06/19 08:44:32;;;;;;;19.73;7.95;;;24.60;61.00;;;;;;5027757;28;20018;-76
2022/06/19 08:47:13;;;;;;;14.68;7.78;;;24.70;61.10;;;;;;5029050;28;20026;-75
2022/06/19 08:49:54;;;;;;;12.63;6.78;;;24.70;61.10;;;;;;5031271;28;20100;-75
2022/06/19 08:52:47;;;;;;;17.55;7.97;;;24.70;61.00;;;;;;5032302;28;20035;-76
2022/06/19 08:55:28;;;;;;;18.08;6.32;;;24.70;61.20;;;;;;5031855;28;20510;-76
2022/06/19 08:58:27;;;;;;;15.40;6.80;;;24.70;61.20;;;;;;5015860;28;20026;-76
2022/06/19 09:01:08;;;;;;;16.27;7.28;;;24.70;61.20;;;;;;5032000;28;20510;-75
2022/06/19 09:07:06;;;;;;;21.00;8.27;;;24.70;61.10;;;;;;5033197;28;20029;-75
2022/06/19 09:09:56;;;;;;;12.95;7.00;;;24.80;61.20;;;;;;5026784;28;20625;-76
2022/06/19 09:12:33;;;;;;;18.30;7.22;;;24.70;61.20;;;;;;5025797;28;20026;-76
2022/06/19 09:15:16;;;;;;;16.73;6.85;;;24.70;61.20;;;;;;5030966;28;20052;-77
2022/06/19 09:18:28;;;;;;;14.15;7.20;;;24.80;61.20;;;;;;5033263;28;20033;-76
2022/06/19 09:21:37;;;;;;;14.23;6.82;;;24.70;61.30;;;;;;5024725;28;20441;-77
2022/06/19 09:24:28;;;;;;;16.05;7.18;;;24.70;61.30;;;;;;5030962;28;20492;-76
2022/06/19 09:26:57;;;;;;;12.35;6.82;;;24.70;61.20;;;;;;5032807;28;20037;-77
2022/06/19 09:29:42;;;;;;;15.33;7.53;;;24.70;61.20;;;;;;5031115;28;20021;-77
2022/06/19 09:32:15;;;;;;;14.95;7.43;;;24.70;61.20;;;;;;5031977;28;20455;-77
2022/06/19 09:34:53;;;;;;;14.65;7.28;;;24.80;61.40;;;;;;5032960;28;20449;-78
2022/06/19 09:37:32;;;;;;;13.85;7.40;;;24.70;61.40;;;;;;5024478;28;20394;-77
2022/06/19 09:40:14;;;;;;;;;;;24.70;61.30;;;;;;5032401;28;20052;-77
2022/06/19 09:42:54;;;;;;;16.27;7.38;;;24.70;61.40;;;;;;5032660;28;20129;-77
2022/06/19 09:45:21;;;;;;;15.18;6.88;;;24.70;61.40;;;;;;5013918;28;20427;-77
2022/06/19 09:48:01;;;;;;;14.20;7.03;;;24.70;61.40;;;;;;5027295;28;20026;-77
2022/06/19 09:50:35;;;;;;;14.98;7.30;;;24.80;61.50;;;;;;5024398;28;20025;-77
2022/06/19 09:53:14;;;;;;;13.85;7.50;;;24.70;61.40;;;;;;5033475;28;20033;-77
2022/06/19 09:55:42;;;;;;;14.25;7.28;;;24.80;61.40;;;;;;5031025;28;20040;-77
2022/06/19 09:58:17;;;;;;;18.00;7.78;;;24.80;61.40;;;;;;5031652;28;20025;-75
2022/06/19 10:00:46;;;;;;;16.58;7.70;;;24.80;61.70;;;;;;5032866;28;20056;-77
2022/06/19 10:03:27;;;;;;;16.98;7.53;;;24.80;61.70;;;;;;5013988;28;20025;-77
2022/06/19 10:06:11;;;;;;;16.08;7.00;;;24.80;61.70;;;;;;5028159;28;20029;-77
2022/06/19 10:08:43;;;;;;;20.17;7.07;;;24.80;61.70;;;;;;5031810;28;20025;-78
2022/06/19 10:11:26;;;;;;;21.80;7.72;;;24.80;61.70;;;;;;5011507;28;20540;-78
2022/06/19 10:14:03;;;;;;;26.88;8.02;;;24.80;62.00;;;;;;5032185;28;20056;-77
2022/06/19 10:16:49;;;;;;;18.83;7.90;;;24.80;62.00;;;;;;5032316;28;20037;-78
2022/06/19 10:19:33;;;;;;;18.33;8.60;;;24.80;62.00;;;;;;5029519;28;20044;-78
2022/06/19 10:22:16;;;;;;;21.92;7.55;;;24.80;62.20;;;;;;5030766;28;20029;-78
2022/06/19 10:25:19;;;;;;;20.20;7.20;;;24.90;60.90;;;;;;5031458;28;20410;-75
2022/06/19 10:28:10;;;;;;;23.88;7.05;;;25.00;59.40;;;;;;5030057;28;20045;-79
2022/06/19 10:30:45;;;;;;;22.38;6.82;;;25.20;56.90;;;;;;5032716;28;20041;-78
2022/06/19 10:33:27;;;;;;;19.63;7.80;;;;;;;;;;5032552;28;20022;-79
2022/06/19 10:35:59;;;;;;;28.15;8.52;;;;;;;;;;5030682;28;20040;-79
2022/06/19 10:38:48;;;;;;;19.55;8.45;;;;;;;;;;4996690;28;20402;-74
2022/06/19 10:42:00;;;;;;;32.50;9.20;;;;;;;;;;5049725;28;20474;-74
2022/06/19 10:44:19;;;;;;;20.60;9.75;;;;;;;;;;5031222;28;20379;-70
2022/06/19 10:46:49;;;;;;;23.80;7.70;;;;;;;;;;5015057;28;20055;-73
2022/06/19 10:49:19;;;;;;;20.67;7.05;;;;;;;;;;5030268;28;20079;-74
2022/06/19 10:51:59;;;;;;;25.00;7.00;;;;;;;;;;5030108;28;20033;-74
2022/06/19 10:54:52;;;;;;;22.35;6.93;;;;;;;;;;5023501;28;20071;-74
2022/06/19 10:57:21;;;;;;;19.83;6.28;;;;;;;;;;5023891;28;20040;-73
2022/06/19 10:59:48;;;;;;;21.85;6.53;;;;;;;;;;5028374;28;20597;-74
2022/06/19 11:05:34;;;;;;;20.92;6.85;;;;;;;;;;4998715;28;20557;-72
2022/06/19 11:08:01;;;;;;;29.00;6.60;;;;;;;;;;5030122;28;20048;-74
2022/06/19 11:10:35;;;;;;;20.17;6.63;;;;;;;;;;5010305;28;20394;-74
2022/06/19 11:13:03;;;;;;;21.15;7.32;;;;;;;;;;5027875;28;20045;-74
2022/06/19 11:15:37;;;;;;;24.08;8.40;;;;;;;;;;5030794;28;20060;-73
2022/06/19 11:18:20;;;;;;;20.60;8.70;;;;;;;;;;5029930;28;20544;-74
2022/06/19 11:20:55;;;;;;;23.08;8.45;;;;;;;;;;5027460;28;20044;-70
2022/06/19 11:23:28;;;;;;;27.25;7.65;;;;;;;;;;5031720;28;20052;-74
2022/06/19 11:26:09;;;;;;;22.70;7.53;;;;;;;;;;5030649;28;20030;-74
2022/06/19 11:29:02;;;;;;;27.65;9.38;;;25.40;60.40;;;;;;5028806;28;20037;-69
2022/06/19 11:31:34;;;;;;;31.50;13.27;;;25.40;60.70;;;;;;5027279;28;20123;-73
2022/06/19 11:37:22;;;;;;;25.35;10.05;;;25.60;58.70;;;;;;5031514;28;20037;-72
2022/06/19 11:39:59;;;;;;;22.30;9.90;;;25.50;59.30;;;;;;5035027;28;20040;-73
2022/06/19 11:42:35;;;;;;;24.60;10.13;;;25.50;59.50;;;;;;5022829;28;20021;-72
2022/06/19 11:45:13;;;;;;;24.80;9.52;;;25.40;60.70;;;;;;5030615;28;20219;-73
2022/06/19 11:47:43;;;;;;;23.67;9.95;;;25.40;60.80;;;;;;5029025;28;20067;-73
2022/06/19 11:50:12;;;;;;;37.38;12.70;;;25.30;64.10;;;;;;5029485;28;20112;-73
2022/06/19 11:52:54;;;;;;;55.03;14.93;;;25.30;69.30;;;;;;5030266;28;20033;-73
2022/06/19 11:55:27;;;;;;;47.85;14.68;;;25.40;73.70;;;;;;5030439;28;20399;-72
2022/06/19 11:58:02;;;;;;;46.03;15.05;;;25.40;74.80;;;;;;5029466;28;20030;-73
2022/06/19 12:00:30;;;;;;;36.40;11.68;;;25.30;72.20;;;;;;5030549;28;20045;-72
2022/06/19 12:02:59;;;;;;;29.67;11.18;;;25.30;65.90;;;;;;5030582;28;20022;-73
2022/06/19 12:05:28;;;;;;;;;;;25.30;67.00;;;;;;5029859;28;20112;-72
2022/06/19 12:07:59;;;;;;;29.85;10.57;;;25.30;67.50;;;;;;5030592;28;20369;-73
2022/06/19 12:10:28;;;;;;;26.38;9.65;;;25.30;63.80;;;;;;5030207;28;20180;-73
2022/06/19 12:12:57;;;;;;;24.42;8.93;;;25.30;65.30;;;;;;5026128;28;20048;-73
2022/06/19 12:15:27;;;;;;;23.63;6.87;;;25.30;64.70;;;;;;5029479;28;20028;-72
2022/06/19 12:18:24;;;;;;;21.95;5.90;;;25.90;60.50;;;;;;5027836;28;20026;-72
2022/06/19 12:21:06;;;;;;;28.58;6.53;;;;;;;;;;5030516;28;20041;-73
2022/06/19 12:23:39;;;;;;;22.42;6.75;;;26.70;58.80;;;;;;5027416;28;20123;-72
2022/06/19 12:26:11;;;;;;;19.17;7.05;;;26.30;59.30;;;;;;5034013;28;20371;-72
2022/06/19 12:28:56;;;;;;;23.02;7.35;;;26.00;59.60;;;;;;5031779;28;20018;-72
2022/06/19 12:31:27;;;;;;;22.70;7.25;;;25.80;60.30;;;;;;5032727;28;20024;-72
2022/06/19 12:34:02;;;;;;;25.08;7.47;;;25.70;60.90;;;;;;5032522;28;20033;-72
2022/06/19 12:36:35;;;;;;;20.60;6.28;;;25.50;61.30;;;;;;5034866;28;20033;-72
2022/06/19 12:39:02;;;;;;;21.27;6.78;;;25.50;61.50;;;;;;5032905;28;20106;-72
2022/06/19 12:41:51;;;;;;;16.25;6.15;;;25.40;61.70;;;;;;5034687;28;20033;-71
2022/06/19 12:44:32;;;;;;;19.45;6.90;;;25.40;61.80;;;;;;5029688;28;20167;-72
2022/06/19 12:47:13;;;;;;;23.45;6.15;;;25.30;61.80;;;;;;5034729;28;20064;-73
2022/06/19 12:50:21;;;;;;;17.88;6.25;;;25.30;62.00;;;;;;5031984;28;20025;-72
2022/06/19 12:53:05;;;;;;;12.25;5.93;;;25.20;61.90;;;;;;5000776;28;20092;-73
2022/06/19 12:56:08;;;;;;;15.73;6.53;;;25.20;62.10;;;;;;5027276;28;20076;-73
2022/06/19 12:58:37;;;;;;;20.70;6.20;;;25.20;62.10;;;;;;5031525;28;20087;-72
2022/06/19 13:01:36;;;;;;;19.15;6.22;;;25.20;62.10;;;;;;5032853;28;20386;-73
2022/06/19 13:04:19;;;;;;;18.27;5.97;;;25.20;62.60;;;;;;5033938;28;20406;-73
2022/06/19 13:07:06;;;;;;;18.90;6.03;;;25.20;62.60;;;;;;5033197;28;20044;-74
2022/06/19 13:10:07;;;;;;;23.10;6.97;;;25.20;62.90;;;;;;5033756;28;20030;-74
2022/06/19 13:12:52;;;;;;;13.27;5.50;;;25.20;62.80;;;;;;4970793;28;20038;-73
2022/06/19 13:15:26;;;;;;;18.00;7.00;;;25.20;62.80;;;;;;5029189;28;20548;-71
2022/06/19 13:18:08;;;;;;;19.30;6.03;;;25.30;62.50;;;;;;5015802;28;20036;-69
2022/06/19 13:21:03;;;;;;;20.10;6.60;;;25.30;61.30;;;;;;5033287;28;20104;-72
2022/06/19 13:23:42;;;;;;;16.35;6.05;;;25.50;61.00;;;;;;5025931;28;20124;-72
2022/06/19 13:29:28;;;;;;;24.08;5.93;;;25.50;61.50;;;;;;5020021;28;20541;-72